Time;durP1;ratioP1;P1;durP2;ratioP2;P2;SDS_P1;SDS_P2;PMS_P1;PMS_P2;Temp;Humidity;BMP_temperature;BMP_pressure;BME280_temperature;BME280_humidity;BME280_pressure;Samples;Min_cycle;Max_cycle;Signal;HPM_P1;HPM_P2
2023/11/12 00:02:00;;;;;;;;;;;;;;;17.00;53.74;99911.31;5092313;28;1055;-49
2023/11/12 00:04:26;;;;;;;;;;;;;;;17.23;52.97;99904.13;5079676;28;1054;-48
2023/11/12 00:06:51;;;;;;;;;;;;;;;16.72;53.97;99911.97;5083209;28;1014;-47
2023/11/12 00:09:17;;;;;;;;;;;;;;;16.50;54.13;99917.22;5099088;28;1121;-47
2023/11/12 00:11:44;;;;;;;;;;;;;;;17.42;52.80;99923.34;5094191;28;1065;-46
2023/11/12 00:14:10;;;;;;;;;;;;;;;17.12;53.00;99930.13;5089681;28;1905;-46
2023/11/12 00:16:35;;;;;;;;;;;;;;;16.70;53.79;99936.13;5091678;28;1018;-49
2023/11/12 00:19:04;;;;;;;;;;;;;;;16.58;54.17;99944.81;5098787;28;1034;-46
2023/11/12 00:21:29;;;;;;;;;;;;;;;17.38;52.39;99944.28;5080023;28;1145;-48
2023/11/12 00:23:55;;;;;;;;;;;;;;;16.76;53.62;99945.97;5078884;28;1078;-49
2023/11/12 00:26:24;;;;;;;;;;;;;;;16.49;53.87;99967.72;5082663;28;1102;-46
2023/11/12 00:28:51;;;;;;;;;;;;;;;16.38;54.31;99964.25;5069173;28;872;-49
2023/11/12 00:31:17;;;;;;;;;;;;;;;17.70;51.66;99965.47;5065776;28;1396;-47
2023/11/12 00:33:42;;;;;;;;;;;;;;;17.10;52.78;99958.69;5086285;28;1901;-47
2023/11/12 00:36:08;;;;;;;;;;;;;;;16.68;53.74;99960.34;5096774;28;1055;-46
2023/11/12 00:38:34;;;;;;;;;;;;;;;16.45;53.97;99972.94;5080300;28;1146;-47
2023/11/12 00:41:00;;;;;;;;;;;;;;;16.38;53.86;99950.53;5097438;28;1058;-49
2023/11/12 00:43:29;;;;;;;;;;;;;;;17.05;53.14;99952.47;5098364;28;1090;-46
2023/11/12 00:45:58;;;;;;;;;;;;;;;16.97;53.11;99956.69;5078989;28;1157;-46
2023/11/12 00:48:24;;;;;;;;;;;;;;;16.57;53.92;99953.34;5059990;28;1103;-46
2023/11/12 00:50:49;;;;;;;;;;;;;;;16.32;54.29;99957.19;5096946;28;1217;-45
2023/11/12 00:53:15;;;;;;;;;;;;;;;16.91;53.58;99968.84;5096376;28;1905;-50
2023/11/12 00:55:40;;;;;;;;;;;;;;;17.69;51.48;99971.25;5066455;28;1091;-45
2023/11/12 00:58:06;;;;;;;;;;;;;;;16.88;53.19;99972.16;5079914;28;1248;-47
2023/11/12 01:00:31;;;;;;;;;;;;;;;16.57;53.48;99965.13;5078761;28;1120;-47
2023/11/12 01:02:57;;;;;;;;;;;;;;;16.37;54.05;99979.91;5072385;28;1280;-47
2023/11/12 01:05:23;;;;;;;;;;;;;;;17.53;51.98;99967.94;5087082;28;1117;-46
2023/11/12 01:07:48;;;;;;;;;;;;;;;17.02;52.92;99978.56;5090085;28;1039;-47
2023/11/12 01:10:14;;;;;;;;;;;;;;;16.63;53.68;99973.31;5079727;28;1211;-46
2023/11/12 01:12:40;;;;;;;;;;;;;;;16.43;53.78;99980.66;5067443;28;1897;-50
2023/11/12 01:15:06;;;;;;;;;;;;;;;17.43;52.02;99975.25;5083255;28;1118;-49
2023/11/12 01:17:31;;;;;;;;;;;;;;;17.05;52.89;99968.94;5097179;28;892;-45
2023/11/12 01:20:00;;;;;;;;;;;;;;;16.59;53.55;99971.16;5084185;28;1208;-46
2023/11/12 01:22:26;;;;;;;;;;;;;;;16.39;53.97;99974.13;5079391;28;1249;-48
2023/11/12 01:24:51;;;;;;;;;;;;;;;16.89;53.41;99979.31;5084277;28;1229;-49
2023/11/12 01:27:17;;;;;;;;;;;;;;;17.21;52.36;99978.59;5084208;28;1263;-48
2023/11/12 01:29:43;;;;;;;;;;;;;;;16.63;53.58;99978.78;5069634;28;1203;-48
2023/11/12 01:32:09;;;;;;;;;;;;;;;16.41;53.89;99977.38;5084241;28;1050;-50
2023/11/12 01:34:34;;;;;;;;;;;;;;;17.44;51.95;99974.09;5076589;28;1930;-47
2023/11/12 01:37:00;;;;;;;;;;;;;;;16.95;52.89;99980.88;5072261;28;1528;-45
2023/11/12 01:39:26;;;;;;;;;;;;;;;16.56;53.48;99981.88;5073492;28;1155;-46
2023/11/12 01:41:52;;;;;;;;;;;;;;;16.82;53.51;99984.34;5092785;28;879;-45
2023/11/12 01:44:17;;;;;;;;;;;;;;;17.48;51.72;99977.09;5095993;28;1062;-46
2023/11/12 01:46:43;;;;;;;;;;;;;;;16.82;52.97;99984.34;5085132;28;1166;-43
2023/11/12 01:49:08;;;;;;;;;;;;;;;16.52;53.71;99978.09;5082138;28;1229;-47
2023/11/12 01:51:35;;;;;;;;;;;;;;;16.63;53.60;99974.13;5067153;28;1278;-48
2023/11/12 01:54:02;;;;;;;;;;;;;;;17.48;51.60;99965.28;5059091;28;1905;-45
2023/11/12 01:56:27;;;;;;;;;;;;;;;16.78;53.08;99967.63;5059157;28;1421;-47
2023/11/12 01:58:54;;;;;;;;;;;;;;;16.52;53.60;99967.13;5060103;28;1198;-48
2023/11/12 02:01:20;;;;;;;;;;;;;;;16.34;53.79;99972.28;5078629;28;1089;-51
2023/11/12 02:03:45;;;;;;;;;;;;;;;16.92;53.02;99971.28;5065771;28;1126;-46
2023/11/12 02:06:12;;;;;;;;;;;;;;;17.10;52.60;99955.94;5073349;28;1250;-49
2023/11/12 02:08:40;;;;;;;;;;;;;;;16.62;53.35;99956.03;5071951;28;1130;-48
2023/11/12 02:11:09;;;;;;;;;;;;;;;16.79;53.46;99961.03;5089670;28;995;-46
2023/11/12 02:13:38;;;;;;;;;;;;;;;17.29;51.94;99955.13;5082772;28;1909;-47
2023/11/12 02:16:04;;;;;;;;;;;;;;;16.69;53.11;99929.03;5065229;28;1125;-47
2023/11/12 02:18:30;;;;;;;;;;;;;;;16.43;53.52;99929.34;5088206;28;1115;-45
2023/11/12 02:20:55;;;;;;;;;;;;;;;16.27;53.85;99952.59;5071747;28;1201;-45
2023/11/12 02:23:21;;;;;;;;;;;;;;;17.44;51.93;99959.56;5065052;28;1099;-46
2023/11/12 02:25:46;;;;;;;;;;;;;;;16.84;53.02;99962.88;5065442;28;1510;-49
2023/11/12 02:28:14;;;;;;;;;;;;;;;16.48;53.63;99955.09;5089675;28;1018;-48
2023/11/12 02:30:41;;;;;;;;;;;;;;;16.25;53.61;99974.81;5064528;28;1192;-48
2023/11/12 02:33:07;;;;;;;;;;;;;;;17.25;52.13;99965.06;5076392;28;1977;-49
2023/11/12 02:35:35;;;;;;;;;;;;;;;17.10;51.82;99961.44;5071692;28;1301;-47
2023/11/12 02:38:00;;;;;;;;;;;;;;;16.58;53.09;99979.69;5065877;28;1281;-45
2023/11/12 02:40:27;;;;;;;;;;;;;;;17.01;52.35;99987.13;5064289;28;1372;-44
2023/11/12 02:42:52;;;;;;;;;;;;;;;17.34;51.22;99985.28;5089007;28;1078;-45
2023/11/12 02:45:18;;;;;;;;;;;;;;;16.68;52.71;100003.44;5090034;28;1055;-45
2023/11/12 02:47:43;;;;;;;;;;;;;;;16.47;53.14;100017.41;5089448;28;1034;-45
2023/11/12 02:50:10;;;;;;;;;;;;;;;16.41;53.21;100026.78;5075569;28;1393;-44
2023/11/12 02:52:35;;;;;;;;;;;;;;;17.52;50.81;100029.53;5095076;28;1965;-45
2023/11/12 02:55:01;;;;;;;;;;;;;;;16.77;52.50;100032.72;5089328;28;1044;-47
2023/11/12 02:57:27;;;;;;;;;;;;;;;16.47;53.04;100057.75;5083107;28;1093;-46
2023/11/12 02:59:53;;;;;;;;;;;;;;;17.52;50.79;100035.03;5095859;28;1077;-45
2023/11/12 03:02:19;;;;;;;;;;;;;;;17.12;51.54;100040.78;5088790;28;1205;-45
2023/11/12 03:04:44;;;;;;;;;;;;;;;16.59;52.67;100034.28;5070465;28;1356;-47
2023/11/12 03:07:10;;;;;;;;;;;;;;;16.45;52.74;100043.50;5065624;28;1077;-46
2023/11/12 03:09:35;;;;;;;;;;;;;;;16.37;53.10;100043.03;5064353;28;1283;-50
2023/11/12 03:12:04;;;;;;;;;;;;;;;17.50;50.15;100031.75;5088543;28;1110;-50
2023/11/12 03:14:33;;;;;;;;;;;;;;;16.73;52.03;100034.41;5071203;28;1917;-48
2023/11/12 03:16:58;;;;;;;;;;;;;;;16.42;52.73;100040.22;5081259;28;1102;-49
2023/11/12 03:19:24;;;;;;;;;;;;;;;17.26;50.85;100049.97;5072256;28;1263;-48
2023/11/12 03:21:52;;;;;;;;;;;;;;;17.07;51.05;100033.44;5091266;28;1058;-44
2023/11/12 03:24:27;;;;;;;;;;;;;;;16.59;51.99;100039.78;5094854;28;1098;-47
2023/11/12 03:26:52;;;;;;;;;;;;;;;16.39;52.59;100062.75;5099547;28;1065;-48
2023/11/12 03:29:18;;;;;;;;;;;;;;;17.50;50.24;100051.00;5084991;28;1157;-47
2023/11/12 03:31:48;;;;;;;;;;;;;;;16.81;51.60;100065.06;5070975;28;1202;-48
2023/11/12 03:34:13;;;;;;;;;;;;;;;16.49;52.24;100056.34;5099429;28;1987;-49
2023/11/12 03:36:39;;;;;;;;;;;;;;;17.27;50.86;100062.56;5089845;28;1129;-48
2023/11/12 03:39:05;;;;;;;;;;;;;;;17.01;51.02;100064.03;5081766;28;1086;-43
2023/11/12 03:41:31;;;;;;;;;;;;;;;16.56;52.12;100066.97;5089807;28;1101;-47
2023/11/12 03:43:56;;;;;;;;;;;;;;;16.37;52.44;100062.22;5092848;28;1065;-47
2023/11/12 03:46:22;;;;;;;;;;;;;;;16.33;52.65;100079.56;5061485;28;1079;-48
2023/11/12 03:48:47;;;;;;;;;;;;;;;17.60;49.83;100067.38;5092727;28;1066;-46
2023/11/12 03:51:13;;;;;;;;;;;;;;;16.81;51.53;100062.31;5079458;28;1126;-46
2023/11/12 03:53:39;;;;;;;;;;;;;;;16.41;52.28;100082.50;5088054;28;1980;-50
2023/11/12 03:56:05;;;;;;;;;;;;;;;17.54;49.65;100080.34;5087688;28;1110;-48
2023/11/12 03:58:31;;;;;;;;;;;;;;;16.81;51.47;100089.78;5099418;28;1065;-50
2023/11/12 04:00:56;;;;;;;;;;;;;;;16.52;52.00;100093.34;5090502;28;1137;-44
2023/11/12 04:03:22;;;;;;;;;;;;;;;16.30;52.20;100097.41;5062432;28;1027;-49
2023/11/12 04:05:47;;;;;;;;;;;;;;;16.31;52.60;100095.47;5090175;28;1121;-46
2023/11/12 04:08:13;;;;;;;;;;;;;;;17.53;49.45;100099.88;5063834;28;1031;-44
2023/11/12 04:10:39;;;;;;;;;;;;;;;16.76;51.37;100109.88;5078932;28;1134;-47
2023/11/12 04:13:05;;;;;;;;;;;;;;;16.56;51.81;100111.72;5073741;28;1901;-47
2023/11/12 04:15:30;;;;;;;;;;;;;;;17.57;49.27;100111.91;5085537;28;1055;-45
2023/11/12 04:17:56;;;;;;;;;;;;;;;16.82;51.02;100118.88;5079747;28;1122;-47
2023/11/12 04:20:27;;;;;;;;;;;;;;;16.55;51.83;100125.72;5092120;28;1057;-43
2023/11/12 04:22:53;;;;;;;;;;;;;;;16.57;51.98;100129.00;5073702;28;1173;-45
2023/11/12 04:25:18;;;;;;;;;;;;;;;17.35;49.61;100132.56;5086761;28;2791;-47
2023/11/12 04:27:44;;;;;;;;;;;;;;;16.71;51.42;100135.44;5097447;28;1824;-47
2023/11/12 04:30:10;;;;;;;;;;;;;;;16.40;51.89;100151.38;5083060;28;2121;-43
2023/11/12 04:32:36;;;;;;;;;;;;;;;17.50;49.43;100159.03;5085013;28;1955;-50
2023/11/12 04:35:02;;;;;;;;;;;;;;;17.23;50.14;100162.38;5067120;28;2199;-46
2023/11/12 04:37:27;;;;;;;;;;;;;;;16.70;51.27;100165.94;5093413;28;2153;-52
2023/11/12 04:39:53;;;;;;;;;;;;;;;16.44;51.82;100163.44;5086670;28;1098;-49
2023/11/12 04:42:18;;;;;;;;;;;;;;;16.83;51.40;100165.25;5089943;28;1110;-50
2023/11/12 04:44:44;;;;;;;;;;;;;;;17.28;49.80;100170.56;5087138;28;1078;-54
2023/11/12 04:47:10;;;;;;;;;;;;;;;16.69;51.35;100167.03;5096090;28;1238;-54
2023/11/12 04:49:37;;;;;;;;;;;;;;;16.55;51.49;100178.69;5097133;28;1050;-50
2023/11/12 04:52:03;;;;;;;;;;;;;;;16.37;51.72;100177.47;5097311;28;1061;-52
2023/11/12 04:54:29;;;;;;;;;;;;;;;17.42;49.57;100179.72;5092161;28;1988;-52
2023/11/12 04:56:55;;;;;;;;;;;;;;;17.06;50.42;100190.31;5097517;28;1109;-49
2023/11/12 04:59:21;;;;;;;;;;;;;;;16.60;51.40;100200.59;5090174;28;1168;-50
2023/11/12 05:01:47;;;;;;;;;;;;;;;16.42;51.92;100196.66;5089413;28;1061;-50
2023/11/12 05:04:13;;;;;;;;;;;;;;;17.32;50.19;100209.25;5059279;28;1158;-49
2023/11/12 05:06:39;;;;;;;;;;;;;;;17.14;50.17;100219.06;5086451;28;1032;-49
2023/11/12 05:09:05;;;;;;;;;;;;;;;16.65;51.32;100213.47;5097546;28;2701;-49
2023/11/12 05:11:31;;;;;;;;;;;;;;;16.42;51.94;100218.59;5097249;28;1061;-51
2023/11/12 05:13:56;;;;;;;;;;;;;;;17.64;49.16;100227.84;5089308;28;1976;-46
2023/11/12 05:16:22;;;;;;;;;;;;;;;16.87;51.09;100226.72;5090486;28;1139;-46
2023/11/12 05:18:47;;;;;;;;;;;;;;;16.56;51.64;100245.38;5077199;28;843;-46
2023/11/12 05:21:13;;;;;;;;;;;;;;;17.07;50.79;100242.22;5091262;28;1043;-49
2023/11/12 05:23:38;;;;;;;;;;;;;;;17.41;49.66;100259.72;5097706;28;1082;-50
2023/11/12 05:26:04;;;;;;;;;;;;;;;16.77;51.13;100257.84;5096399;28;1058;-46
2023/11/12 05:28:29;;;;;;;;;;;;;;;16.53;51.74;100265.97;5097183;28;1069;-50
2023/11/12 05:30:55;;;;;;;;;;;;;;;16.55;52.25;100269.25;5086612;28;995;-48
2023/11/12 05:33:21;;;;;;;;;;;;;;;17.05;50.44;100280.13;5084927;28;1909;-51
2023/11/12 05:35:47;;;;;;;;;;;;;;;16.68;50.05;100284.25;5083153;28;1130;-49
2023/11/12 05:38:12;;;;;;;;;;;;;;;16.45;49.29;100274.00;5087772;28;2196;-53
2023/11/12 05:40:38;;;;;;;;;;;;;;;16.29;48.24;100282.34;5091840;28;1204;-49
2023/11/12 05:43:04;;;;;;;;;;;;;;;16.17;47.90;100284.59;5085489;28;886;-52
2023/11/12 05:45:29;;;;;;;;;;;;;;;16.21;47.24;100296.63;5072390;28;1023;-47
2023/11/12 05:47:55;;;;;;;;;;;;;;;16.11;47.02;100302.19;5085595;28;1011;-48
2023/11/12 05:50:21;;;;;;;;;;;;;;;16.02;46.83;100290.97;5083095;28;1154;-51
2023/11/12 05:52:47;;;;;;;;;;;;;;;16.01;46.44;100300.31;5096655;28;1902;-49
2023/11/12 05:55:13;;;;;;;;;;;;;;;15.94;46.13;100303.34;5091414;28;1033;-50
2023/11/12 05:57:39;;;;;;;;;;;;;;;15.87;46.10;100305.59;5096536;28;1313;-49
2023/11/12 06:00:08;;;;;;;;;;;;;;;15.86;45.77;100310.22;5100139;28;1066;-46
2023/11/12 06:02:39;;;;;;;;;;;;;;;15.72;45.88;100307.25;5085790;28;1115;-49
2023/11/12 06:05:05;;;;;;;;;;;;;;;15.69;45.68;100318.75;5096215;28;1047;-44
2023/11/12 06:07:31;;;;;;;;;;;;;;;15.69;45.56;100321.50;5089756;28;2062;-48
2023/11/12 06:09:57;;;;;;;;;;;;;;;15.55;45.53;100317.72;5075280;28;1137;-48
2023/11/12 06:12:22;;;;;;;;;;;;;;;15.57;45.28;100337.41;5085745;28;1070;-45
2023/11/12 06:14:48;;;;;;;;;;;;;;;15.58;44.99;100333.59;5095897;28;1981;-46
2023/11/12 06:17:13;;;;;;;;;;;;;;;15.49;45.19;100335.28;5086939;28;1176;-46
2023/11/12 06:19:39;;;;;;;;;;;;;;;15.51;45.07;100327.56;5089126;28;1043;-46
2023/11/12 06:22:04;;;;;;;;;;;;;;;15.43;45.02;100331.72;5087526;28;1082;-49
2023/11/12 06:24:30;;;;;;;;;;;;;;;15.45;45.08;100345.13;5091000;28;1058;-46
2023/11/12 06:26:55;;;;;;;;;;;;;;;15.40;44.69;100349.53;5087463;28;1022;-44
2023/11/12 06:29:21;;;;;;;;;;;;;;;15.36;44.62;100342.13;5091221;28;1185;-44
2023/11/12 06:31:46;;;;;;;;;;;;;;;15.33;44.54;100337.19;5091837;28;1036;-47
2023/11/12 06:34:12;;;;;;;;;;;;;;;15.30;44.63;100348.72;5094132;28;1980;-43
2023/11/12 06:36:37;;;;;;;;;;;;;;;15.28;44.60;100351.72;5076385;28;1062;-46
2023/11/12 06:39:03;;;;;;;;;;;;;;;15.19;44.68;100347.88;5089402;28;1082;-44
2023/11/12 06:41:29;;;;;;;;;;;;;;;15.27;44.35;100344.59;5084926;28;1018;-44
2023/11/12 06:43:54;;;;;;;;;;;;;;;15.19;44.36;100350.63;5082466;28;1085;-48
2023/11/12 06:46:19;;;;;;;;;;;;;;;15.10;44.73;100349.53;5095955;28;1014;-44
2023/11/12 06:48:46;;;;;;;;;;;;;;;15.03;44.33;100345.16;5096352;28;1493;-47
2023/11/12 06:51:21;;;;;;;;;;;;;;;15.08;44.22;100346.25;5087381;28;1054;-46
2023/11/12 06:53:47;;;;;;;;;;;;;;;15.04;44.16;100352.28;5092110;28;1909;-44
2023/11/12 06:56:12;;;;;;;;;;;;;;;14.99;44.28;100345.97;5080978;28;872;-44
2023/11/12 06:58:39;;;;;;;;;;;;;;;15.20;45.31;100349.53;5089514;28;1082;-45
2023/11/12 07:01:05;;;;;;;;;;;;;;;15.49;46.88;100352.53;5084093;28;1420;-49
2023/11/12 07:03:30;;;;;;;;;;;;;;;15.30;46.70;100359.66;5089399;28;1129;-47
2023/11/12 07:05:56;;;;;;;;;;;;;;;15.17;46.30;100363.78;5083604;28;1123;-48
2023/11/12 07:08:21;;;;;;;;;;;;;;;15.17;45.82;100353.63;5086347;28;1364;-46
2023/11/12 07:10:47;;;;;;;;;;;;;;;15.02;45.36;100357.19;5100803;28;1322;-50
2023/11/12 07:13:13;;;;;;;;;;;;;;;15.11;45.22;100356.66;5099474;28;1972;-48
2023/11/12 07:15:39;;;;;;;;;;;;;;;14.97;45.12;100351.72;5095326;28;1466;-50
2023/11/12 07:18:04;;;;;;;;;;;;;;;14.93;45.06;100367.06;5102562;28;1192;-50
2023/11/12 07:20:32;;;;;;;;;;;;;;;14.92;44.90;100357.19;5087257;28;920;-48
2023/11/12 07:22:59;;;;;;;;;;;;;;;14.98;44.73;100353.34;5095481;28;1069;-46
2023/11/12 07:25:25;;;;;;;;;;;;;;;14.95;44.62;100366.78;5095787;28;1151;-48
2023/11/12 07:27:51;;;;;;;;;;;;;;;14.81;44.74;100364.56;5087511;28;1217;-48
2023/11/12 07:30:17;;;;;;;;;;;;;;;14.81;44.80;100363.75;5089347;28;1019;-49
2023/11/12 07:32:42;;;;;;;;;;;;;;;14.80;44.69;100360.22;5083888;28;2252;-53
2023/11/12 07:35:08;;;;;;;;;;;;;;;15.50;46.33;100365.13;5091788;28;1027;-48
2023/11/12 07:37:33;;;;;;;;;;;;;;;15.45;47.58;100362.38;5095907;28;1053;-53
2023/11/12 07:39:59;;;;;;;;;;;;;;;15.21;47.25;100362.13;5080050;28;1162;-56
2023/11/12 07:42:24;;;;;;;;;;;;;;;15.16;46.75;100370.34;5092662;28;1144;-48
2023/11/12 07:44:50;;;;;;;;;;;;;;;15.14;46.23;100372.56;5077171;28;1230;-55
2023/11/12 07:47:16;;;;;;;;;;;;;;;15.03;46.07;100372.53;5096228;28;1470;-49
2023/11/12 07:49:41;;;;;;;;;;;;;;;15.00;45.45;100372.28;5087146;28;1339;-50
2023/11/12 07:52:07;;;;;;;;;;;;;;;14.96;45.42;100371.97;5095258;28;1172;-47
2023/11/12 07:54:32;;;;;;;;;;;;;;;14.92;45.30;100359.13;5095635;28;1917;-47
2023/11/12 07:56:58;;;;;;;;;;;;;;;14.89;44.85;100355.00;5093961;28;953;-52
2023/11/12 07:59:23;;;;;;;;;;;;;;;14.92;44.70;100364.59;5074820;28;1022;-51
2023/11/12 08:01:49;;;;;;;;;;;;;;;14.88;44.63;100376.06;5089126;28;1153;-51
2023/11/12 08:04:15;;;;;;;;;;;;;;;14.80;44.69;100362.94;5083833;28;1118;-50
2023/11/12 08:06:40;;;;;;;;;;;;;;;14.84;44.85;100382.38;5096658;28;1193;-50
2023/11/12 08:09:08;;;;;;;;;;;;;;;14.76;45.02;100371.94;5091129;28;851;-53
2023/11/12 08:11:40;;;;;;;;;;;;;;;14.76;44.77;100378.25;5080155;28;1023;-50
2023/11/12 08:14:05;;;;;;;;;;;;;;;15.80;47.00;100376.34;5098887;28;1964;-51
2023/11/12 08:16:31;;;;;;;;;;;;;;;15.25;47.89;100382.41;5096950;28;1037;-53
2023/11/12 08:18:58;;;;;;;;;;;;;;;15.15;46.91;100385.97;5083703;28;1153;-54
2023/11/12 08:21:24;;;;;;;;;;;;;;;15.07;46.25;100386.50;5082010;28;1226;-50
2023/11/12 08:23:49;;;;;;;;;;;;;;;14.99;46.07;100392.53;5097554;28;1461;-55
2023/11/12 08:26:15;;;;;;;;;;;;;;;14.93;45.96;100408.13;5098477;28;1121;-54
2023/11/12 08:28:40;;;;;;;;;;;;;;;14.96;45.47;100382.94;5098411;28;1202;-50
2023/11/12 08:31:06;;;;;;;;;;;;;;;14.87;45.45;100384.56;5098147;28;1084;-54
2023/11/12 08:33:32;;;;;;;;;;;;;;;14.89;45.22;100385.13;5082007;28;1909;-43
2023/11/12 08:35:57;;;;;;;;;;;;;;;14.85;44.97;100384.00;5098770;28;1148;-53
2023/11/12 08:38:23;;;;;;;;;;;;;;;14.76;44.88;100378.25;5098680;28;1125;-53
2023/11/12 08:40:49;;;;;;;;;;;;;;;14.83;44.82;100383.44;5084613;28;1158;-54
2023/11/12 08:43:14;;;;;;;;;;;;;;;14.73;45.03;100392.47;5088783;28;1190;-53
2023/11/12 08:45:40;;;;;;;;;;;;;;;14.70;45.04;100390.28;5092450;28;1099;-48
2023/11/12 08:48:06;;;;;;;;;;;;;;;15.44;46.39;100377.19;5098623;28;1113;-51
2023/11/12 08:50:32;;;;;;;;;;;;;;;15.21;47.52;100373.09;5094887;28;1053;-53
2023/11/12 08:52:59;;;;;;;;;;;;;;;15.08;46.89;100379.91;5077745;28;1914;-53
2023/11/12 08:55:25;;;;;;;;;;;;;;;14.98;46.07;100390.88;5094027;28;1212;-53
2023/11/12 08:57:51;;;;;;;;;;;;;;;14.93;45.99;100390.84;5077937;28;1217;-55
2023/11/12 09:00:18;;;;;;;;;;;;;;;15.43;46.57;100378.28;5091579;28;1091;-53
2023/11/12 09:02:44;;;;;;;;;;;;;;;15.36;48.11;100394.16;5077975;28;1031;-56
2023/11/12 09:05:10;;;;;;;;;;;;;;;15.21;47.25;100400.50;5082330;28;1228;-53
2023/11/12 09:07:36;;;;;;;;;;;;;;;15.13;46.55;100392.81;5095955;28;1093;-56
2023/11/12 09:10:04;;;;;;;;;;;;;;;15.06;45.89;100404.03;5081983;28;1074;-55
2023/11/12 09:12:30;;;;;;;;;;;;;;;15.00;45.87;100408.69;5086408;28;1129;-54
2023/11/12 09:14:57;;;;;;;;;;;;;;;14.88;45.43;100406.19;5091161;28;1913;-53
2023/11/12 09:17:22;;;;;;;;;;;;;;;15.63;46.95;100396.63;5088953;28;1062;-55
2023/11/12 09:19:48;;;;;;;;;;;;;;;15.54;47.74;100404.59;5082713;28;1023;-56
2023/11/12 09:22:13;;;;;;;;;;;;;;;15.26;47.41;100402.41;5097234;28;1073;-52
2023/11/12 09:24:45;;;;;;;;;;;;;;;15.21;46.64;100408.72;5093408;28;1042;-54
2023/11/12 09:27:11;;;;;;;;;;;;;;;15.12;46.09;100407.59;5088979;28;1145;-55
2023/11/12 09:29:36;;;;;;;;;;;;;;;15.09;45.68;100419.09;5083632;28;1053;-54
2023/11/12 09:32:03;;;;;;;;;;;;;;;15.08;45.48;100409.22;5097218;28;1078;-56
2023/11/12 09:34:29;;;;;;;;;;;;;;;14.99;45.38;100401.56;5083668;28;1913;-54
2023/11/12 09:36:55;;;;;;;;;;;;;;;14.98;44.94;100402.63;5097445;28;1034;-53
2023/11/12 09:39:23;;;;;;;;;;;;;;;15.02;44.69;100408.41;5079333;28;1149;-52
2023/11/12 09:41:50;;;;;;;;;;;;;;;14.93;44.62;100405.38;5089189;28;1150;-50
2023/11/12 09:44:17;;;;;;;;;;;;;;;14.84;44.68;100407.00;5059948;28;1097;-52
2023/11/12 09:46:43;;;;;;;;;;;;;;;14.88;44.45;100406.19;5089376;28;1066;-56
2023/11/12 09:49:10;;;;;;;;;;;;;;;14.93;44.40;100399.91;5096893;28;1168;-52
2023/11/12 09:51:35;;;;;;;;;;;;;;;15.40;45.71;100403.47;5067088;28;1030;-52
2023/11/12 09:54:01;;;;;;;;;;;;;;;15.55;47.26;100400.72;5082223;28;1913;-47
2023/11/12 09:56:28;;;;;;;;;;;;;;;15.25;47.23;100411.69;5075193;28;1099;-50
2023/11/12 09:58:54;;;;;;;;;;;;;;;15.26;46.30;100410.63;5074694;28;1232;-48
2023/11/12 10:01:20;;;;;;;;;;;;;;;15.14;45.82;100400.75;5094063;28;1293;-46
2023/11/12 10:03:50;;;;;;;;;;;;;;;15.17;45.66;100404.88;5097123;28;2589;-50
2023/11/12 10:06:16;;;;;;;;;;;;;;;15.94;47.67;100404.00;5090949;28;1087;-48
2023/11/12 10:08:42;;;;;;;;;;;;;;;15.51;47.59;100398.81;5086984;28;1292;-45
2023/11/12 10:11:14;;;;;;;;;;;;;;;15.38;46.91;100384.59;5076102;28;1181;-46
2023/11/12 10:13:40;;;;;;;;;;;;;;;15.33;46.39;100398.31;5084700;28;1921;-44
2023/11/12 10:16:22;;;;;;;;;;;;;;;15.20;45.88;100407.06;5081110;28;1087;-46
2023/11/12 10:18:47;;;;;;;;;;;;;;;15.12;45.56;100402.94;5087090;28;1030;-49
2023/11/12 10:21:13;;;;;;;;;;;;;;;15.14;45.34;100400.75;5085492;28;1011;-49
2023/11/12 10:23:39;;;;;;;;;;;;;;;15.05;45.00;100375.84;5086317;28;1050;-50
2023/11/12 10:26:11;;;;;;;;;;;;;;;15.06;44.74;100402.09;5096067;28;1011;-47
2023/11/12 10:28:37;;;;;;;;;;;;;;;14.96;44.75;100393.88;5084667;28;848;-45
2023/11/12 10:31:03;;;;;;;;;;;;;;;14.97;44.71;100405.66;5075462;28;999;-49
2023/11/12 10:33:29;;;;;;;;;;;;;;;14.94;44.56;100404.31;5078980;28;2419;-46
2023/11/12 10:35:58;;;;;;;;;;;;;;;14.89;44.69;100404.28;5092892;28;1170;-47
2023/11/12 10:38:23;;;;;;;;;;;;;;;14.94;44.50;100412.50;5084919;28;966;-51
2023/11/12 10:41:02;;;;;;;;;;;;;;;14.85;44.74;100425.06;5090974;28;1118;-49
2023/11/12 10:43:29;;;;;;;;;;;;;;;14.78;44.59;100428.06;5083349;28;1284;-49
2023/11/12 10:45:59;;;;;;;;;;;;;;;14.80;44.33;100425.06;5080936;28;920;-47
2023/11/12 10:48:35;;;;;;;;;;;;;;;14.75;44.68;100423.13;5089484;28;1031;-49
2023/11/12 10:51:02;;;;;;;;;;;;;;;14.76;44.57;100426.69;5094340;28;952;-53
2023/11/12 10:53:28;;;;;;;;;;;;;;;15.06;45.32;100425.94;5093166;28;1985;-47
2023/11/12 10:55:54;;;;;;;;;;;;;;;15.58;47.15;100426.75;5092014;28;911;-51
2023/11/12 10:58:20;;;;;;;;;;;;;;;15.12;47.20;100443.19;5082300;28;847;-52
2023/11/12 11:00:46;;;;;;;;;;;;;;;15.09;46.22;100449.22;5070443;28;1178;-50
2023/11/12 11:03:12;;;;;;;;;;;;;;;15.03;45.89;100445.66;5084085;28;2412;-49
2023/11/12 11:05:38;;;;;;;;;;;;;;;14.93;45.46;100446.44;5075572;28;1022;-50
2023/11/12 11:08:04;;;;;;;;;;;;;;;14.92;45.39;100446.72;5075754;28;1054;-51
2023/11/12 11:10:29;;;;;;;;;;;;;;;14.87;44.86;100459.31;5086437;28;897;-51
2023/11/12 11:12:55;;;;;;;;;;;;;;;14.86;44.82;100459.56;5075937;28;1886;-49
2023/11/12 11:15:39;;;;;;;;;;;;;;;14.75;44.79;100469.66;5083168;28;1116;-52
2023/11/12 11:18:04;;;;;;;;;;;;;;;14.81;44.33;100463.09;5092852;28;986;-50
2023/11/12 11:20:50;;;;;;;;;;;;;;;14.80;44.48;100455.16;5085047;28;1127;-50
2023/11/12 11:23:34;;;;;;;;;;;;;;;14.68;44.35;100437.06;5088909;28;1623;-51
2023/11/12 11:26:18;;;;;;;;;;;;;;;14.80;44.73;100449.69;5075183;28;995;-52
2023/11/12 11:28:43;;;;;;;;;;;;;;;15.39;46.54;100452.00;5075199;28;986;-50
2023/11/12 11:31:10;;;;;;;;;;;;;;;15.13;46.35;100442.09;5070574;28;1119;-49
2023/11/12 11:33:47;;;;;;;;;;;;;;;14.99;45.87;100437.16;5083991;28;2406;-51
2023/11/12 11:36:14;;;;;;;;;;;;;;;14.95;45.46;100446.19;5081690;28;1002;-51
2023/11/12 11:38:39;;;;;;;;;;;;;;;15.09;45.83;100452.78;5064596;28;1079;-54
2023/11/12 11:41:06;;;;;;;;;;;;;;;15.50;47.04;100451.97;5094801;28;1229;-47
2023/11/12 11:43:31;;;;;;;;;;;;;;;15.26;46.53;100447.03;5099348;28;1033;-51
2023/11/12 11:46:09;;;;;;;;;;;;;;;15.09;46.28;100452.78;5087580;28;1113;-50
2023/11/12 11:48:44;;;;;;;;;;;;;;;15.12;45.65;100449.47;5079865;28;1097;-47
2023/11/12 11:51:27;;;;;;;;;;;;;;;15.06;45.17;100456.06;5090313;28;986;-49
2023/11/12 11:53:53;;;;;;;;;;;;;;;15.05;44.83;100455.25;5083017;28;1905;-52
2023/11/12 11:56:21;;;;;;;;;;;;;;;14.91;45.04;100473.25;5087872;28;1089;-49
2023/11/12 11:58:50;;;;;;;;;;;;;;;14.94;44.66;100453.59;5091421;28;1158;-53
2023/11/12 12:01:15;;;;;;;;;;;;;;;14.90;44.43;100460.69;5090203;28;1102;-46
2023/11/12 12:03:42;;;;;;;;;;;;;;;15.70;45.98;100462.13;5081657;28;2581;-51
2023/11/12 12:06:14;;;;;;;;;;;;;;;15.34;46.60;100465.66;5096309;28;900;-51
2023/11/12 12:08:52;;;;;;;;;;;;;;;15.12;46.13;100465.91;5098673;28;1109;-49
2023/11/12 12:11:18;;;;;;;;;;;;;;;15.94;46.60;100461.59;5089947;28;1438;-46
2023/11/12 12:13:56;;;;;;;;;;;;;;;15.66;47.67;100470.06;5098230;28;1914;-52
2023/11/12 12:16:28;;;;;;;;;;;;;;;15.41;47.21;100470.88;5098472;28;1059;-50
2023/11/12 12:18:54;;;;;;;;;;;;;;;15.33;46.35;100468.69;5091299;28;1086;-48
2023/11/12 12:21:20;;;;;;;;;;;;;;;15.26;45.88;100458.00;5086792;28;1177;-49
2023/11/12 12:23:46;;;;;;;;;;;;;;;15.32;45.78;100467.03;5096233;28;1394;-49
2023/11/12 12:26:11;;;;;;;;;;;;;;;15.81;46.97;100468.44;5098164;28;1498;-46
2023/11/12 12:28:37;;;;;;;;;;;;;;;15.50;46.96;100473.91;5074403;28;1127;-46
2023/11/12 12:31:02;;;;;;;;;;;;;;;15.38;46.25;100480.47;5064401;28;911;-50
2023/11/12 12:33:30;;;;;;;;;;;;;;;15.26;46.08;100479.91;5083944;28;2423;-49
2023/11/12 12:35:57;;;;;;;;;;;;;;;15.19;45.63;100476.63;5080706;28;1055;-53
2023/11/12 12:38:22;;;;;;;;;;;;;;;15.16;45.28;100490.84;5078760;28;1066;-47
2023/11/12 12:40:51;;;;;;;;;;;;;;;15.10;45.18;100481.00;5094862;28;1130;-48
2023/11/12 12:43:16;;;;;;;;;;;;;;;15.08;44.58;100488.66;5080165;28;1219;-46
2023/11/12 12:46:02;;;;;;;;;;;;;;;15.03;44.75;100479.31;5097839;28;1133;-49
2023/11/12 12:48:29;;;;;;;;;;;;;;;14.96;44.34;100481.50;5084612;28;1629;-49